Time;durP1;ratioP1;P1;durP2;ratioP2;P2;SDS_P1;SDS_P2;PMS_P1;PMS_P2;Temp;Humidity;BMP_temperature;BMP_pressure;BME280_temperature;BME280_humidity;BME280_pressure;Samples;Min_cycle;Max_cycle;Signal;HPM_P1;HPM_P2
2021/07/08 00:01:30;;;;;;;15.65;7.00;;;;;;;17.51;98.80;100089.33;1653617;86;21042;-72
2021/07/08 00:03:56;;;;;;;14.40;7.10;;;;;;;17.51;98.74;100090.72;1610295;87;20998;-74
2021/07/08 00:06:22;;;;;;;16.82;7.15;;;;;;;17.50;98.59;100087.72;1653935;86;21120;-74
2021/07/08 00:08:50;;;;;;;12.25;6.22;;;;;;;17.51;98.69;100093.50;1652999;86;21584;-74
2021/07/08 00:11:16;;;;;;;11.18;6.80;;;;;;;17.52;98.83;100095.11;1655203;86;21147;-74
2021/07/08 00:13:47;;;;;;;12.28;6.33;;;;;;;17.54;98.89;100092.80;1651407;86;21022;-74
2021/07/08 00:16:12;;;;;;;10.10;5.70;;;;;;;17.58;98.62;100094.30;1652416;86;21458;-74
2021/07/08 00:18:40;;;;;;;13.90;6.22;;;;;;;17.62;98.52;100090.47;1654359;86;21053;-75
2021/07/08 00:21:09;;;;;;;10.45;5.95;;;;;;;17.67;98.05;100093.04;1651450;86;21010;-73
2021/07/08 00:23:35;;;;;;;13.10;6.62;;;;;;;17.74;97.70;100085.51;1654245;86;21090;-73
2021/07/08 00:26:02;;;;;;;11.38;6.00;;;;;;;17.79;97.37;100090.82;1651623;86;21069;-74
2021/07/08 00:28:30;;;;;;;11.20;5.53;;;;;;;17.85;96.91;100089.42;1609861;87;21066;-72
2021/07/08 00:30:57;;;;;;;12.37;5.90;;;;;;;17.87;96.53;100085.71;1606496;87;21141;-73
2021/07/08 00:33:23;;;;;;;14.20;6.47;;;;;;;17.89;96.37;100090.91;1653678;85;21006;-72
2021/07/08 00:35:50;;;;;;;9.63;5.65;;;;;;;17.91;96.07;100087.20;1651937;85;21034;-73
2021/07/08 00:38:16;;;;;;;15.63;5.97;;;;;;;17.91;95.99;100083.04;1607648;87;21046;-73
2021/07/08 00:40:44;;;;;;;12.13;5.87;;;;;;;17.90;95.79;100084.20;1603147;87;21033;-72
2021/07/08 00:43:10;;;;;;;10.03;5.67;;;;;;;17.90;95.88;100083.63;1609579;87;21498;-72
2021/07/08 00:45:37;;;;;;;9.00;5.70;;;;;;;17.90;95.92;100082.23;1610253;87;20959;-73
2021/07/08 00:48:05;;;;;;;10.75;5.95;;;;;;;17.93;95.78;100084.86;1653489;85;20992;-72
2021/07/08 00:50:42;;;;;;;15.78;6.05;;;;;;;17.92;95.46;100076.30;1600846;87;21070;-72
2021/07/08 00:53:05;;;;;;;10.48;5.33;;;;;;;17.91;95.36;100076.88;1621255;87;21037;-72
2021/07/08 00:55:32;;;;;;;9.85;5.62;;;;;;;17.91;95.33;100083.04;1655073;86;21859;-73
2021/07/08 00:57:59;;;;;;;11.73;5.12;;;;;;;17.90;95.37;100080.03;1651698;86;21095;-72
2021/07/08 01:00:34;;;;;;;13.10;6.85;;;;;;;17.90;95.15;100077.25;1654523;86;21097;-73
2021/07/08 01:03:01;;;;;;;13.28;6.15;;;;;;;17.90;95.17;100082.23;1651001;86;21115;-72
2021/07/08 01:05:30;;;;;;;13.00;5.95;;;;;;;17.92;95.11;100086.02;1652419;86;21125;-72
2021/07/08 01:07:57;;;;;;;11.12;5.75;;;;;;;17.92;94.85;100088.80;1653402;86;21092;-72
2021/07/08 01:10:24;;;;;;;9.10;6.12;;;;;;;17.95;94.67;100088.09;1653754;86;21549;-72
2021/07/08 01:12:51;;;;;;;11.10;6.45;;;;;;;17.98;94.61;100090.16;1653324;86;22502;-73
2021/07/08 01:15:18;;;;;;;13.43;5.95;;;;;;;17.98;94.39;100086.80;1652555;86;21581;-72
2021/07/08 01:17:44;;;;;;;9.88;6.42;;;;;;;17.98;94.33;100085.41;1607404;87;21155;-72
2021/07/08 01:20:14;;;;;;;8.85;5.58;;;;;;;17.99;94.13;100087.61;1656933;85;21953;-72
2021/07/08 01:22:40;;;;;;;10.82;6.42;;;;;;;18.01;94.12;100090.85;1651769;85;20978;-72
2021/07/08 01:25:10;;;;;;;13.45;6.90;;;;;;;18.00;94.12;100088.66;1603454;87;21015;-72
2021/07/08 01:27:37;;;;;;;9.13;5.47;;;;;;;17.98;94.01;100087.39;1622734;87;21100;-72
2021/07/08 01:30:07;;;;;;;15.00;6.05;;;;;;;17.96;93.92;100090.52;1653356;86;21565;-71
2021/07/08 01:32:34;;;;;;;11.05;6.37;;;;;;;17.94;93.86;100094.22;1652994;86;21155;-72
2021/07/08 01:35:01;;;;;;;13.85;5.60;;;;;;;17.92;93.93;100097.13;1653001;86;21101;-74
2021/07/08 01:37:28;;;;;;;10.32;6.17;;;;;;;17.92;94.10;100092.95;1604315;87;21553;-73
2021/07/08 01:39:59;;;;;;;6.70;5.10;;;;;;;17.90;94.11;100091.95;1618664;87;20998;-73
2021/07/08 01:42:24;;;;;;;8.55;6.03;;;;;;;17.89;94.13;100092.30;1653087;86;21029;-73
2021/07/08 01:44:51;;;;;;;14.90;6.20;;;;;;;17.86;94.22;100093.81;1652826;86;21149;-74
2021/07/08 01:47:17;;;;;;;15.15;6.10;;;;;;;17.84;94.38;100100.88;1602773;87;21083;-73
2021/07/08 01:49:43;;;;;;;11.90;6.15;;;;;;;17.81;94.54;100094.87;1623749;87;21169;-74
2021/07/08 01:52:10;;;;;;;9.83;5.65;;;;;;;17.81;94.75;100094.87;1654893;86;21568;-71
2021/07/08 01:54:38;;;;;;;16.00;5.83;;;;;;;17.79;94.98;100097.19;1607721;88;21050;-71
2021/07/08 01:57:05;;;;;;;11.50;5.85;;;;;;;17.77;95.10;100095.92;1653861;86;21148;-71
2021/07/08 01:59:32;;;;;;;14.73;6.08;;;;;;;17.73;95.15;100092.22;1602555;87;20987;-72
2021/07/08 02:01:58;;;;;;;9.25;5.78;;;;;;;17.69;95.42;100093.50;1657789;85;21027;-71
2021/07/08 02:04:25;;;;;;;10.60;6.03;;;;;;;17.68;95.73;100096.05;1652812;85;21168;-71
2021/07/08 02:06:51;;;;;;;13.03;6.40;;;;;;;17.71;95.88;100093.16;1604587;87;21573;-71
2021/07/08 02:09:17;;;;;;;13.00;6.28;;;;;;;17.77;95.95;100100.08;1641584;85;21111;-72
2021/07/08 02:11:44;;;;;;;9.10;5.70;;;;;;;17.81;95.83;100099.03;1662710;85;20961;-72
2021/07/08 02:14:12;;;;;;;15.10;5.97;;;;;;;17.85;95.71;100096.94;1658078;85;21008;-71
2021/07/08 02:16:38;;;;;;;12.50;6.00;;;;;;;17.90;95.31;100098.90;1657009;85;21001;-71
2021/07/08 02:19:07;;;;;;;17.90;6.15;;;;;;;17.95;95.01;100102.79;1670457;84;20982;-71
2021/07/08 02:21:35;;;;;;;11.45;5.65;;;;;;;18.00;94.90;100108.09;1662359;84;21151;-71
2021/07/08 02:24:02;;;;;;;10.90;5.97;;;;;;;18.04;94.63;100111.79;1609811;87;20982;-71
2021/07/08 02:26:28;;;;;;;11.53;5.92;;;;;;;18.08;94.63;100109.12;1617821;87;21042;-71
2021/07/08 02:28:55;;;;;;;16.75;6.70;;;;;;;18.12;94.50;100112.81;1607242;87;21048;-72
2021/07/08 02:31:21;;;;;;;11.20;6.00;;;;;;;18.15;94.13;100112.91;1607391;87;20919;-72
2021/07/08 02:33:48;;;;;;;15.70;6.33;;;;;;;18.20;93.91;100109.08;1627479;87;21282;-73
2021/07/08 02:36:16;;;;;;;13.83;6.20;;;;;;;18.26;93.79;100115.19;1669962;84;21618;-72
2021/07/08 02:38:42;;;;;;;11.25;5.87;;;;;;;18.30;93.87;100115.52;1655419;85;20965;-72
2021/07/08 02:41:08;;;;;;;11.33;5.50;;;;;;;18.33;93.97;100113.42;1665520;85;21520;-72
2021/07/08 02:43:35;;;;;;;17.17;6.10;;;;;;;18.36;93.80;100117.47;1660168;85;20982;-72
2021/07/08 02:46:02;;;;;;;10.63;5.80;;;;;;;18.40;93.60;100118.38;1670452;84;21941;-72
2021/07/08 02:48:28;;;;;;;15.90;6.15;;;;;;;18.43;93.60;100120.45;1667530;84;20954;-72
2021/07/08 02:50:57;;;;;;;9.90;5.47;;;;;;;18.43;93.57;100118.48;1669092;85;21042;-72
2021/07/08 02:53:23;;;;;;;13.53;5.03;;;;;;;18.45;93.66;100118.94;1667265;85;21044;-73
2021/07/08 02:55:50;;;;;;;8.63;5.78;;;;;;;18.49;93.79;100125.37;1671355;84;21079;-72
2021/07/08 02:58:17;;;;;;;10.85;5.50;;;;;;;18.52;93.90;100125.25;1660974;85;21128;-72
2021/07/08 03:00:43;;;;;;;13.45;5.95;;;;;;;18.57;93.79;100127.77;1661612;85;21560;-72
2021/07/08 03:03:11;;;;;;;11.40;5.47;;;;;;;18.63;93.58;100129.74;1678493;84;21041;-72
2021/07/08 03:05:37;;;;;;;13.08;6.15;;;;;;;18.66;93.16;100125.67;1668981;85;21000;-72
2021/07/08 03:08:05;;;;;;;16.10;5.55;;;;;;;18.72;93.05;100126.22;1666807;85;21614;-72
2021/07/08 03:10:32;;;;;;;12.73;6.00;;;;;;;18.78;93.04;100124.22;1674204;84;21140;-72
2021/07/08 03:12:58;;;;;;;14.98;6.40;;;;;;;18.82;93.38;100131.27;1667613;84;20965;-72
2021/07/08 03:15:25;;;;;;;14.15;5.55;;;;;;;18.86;93.54;100133.55;1671261;84;21250;-73
2021/07/08 03:17:54;;;;;;;14.00;6.22;;;;;;;18.92;93.59;100125.17;1674931;84;21054;-73
2021/07/08 03:20:22;;;;;;;12.75;5.60;;;;;;;18.97;93.76;100133.84;1663699;85;21560;-73
2021/07/08 03:22:50;;;;;;;11.30;5.42;;;;;;;19.04;93.58;100135.42;1665930;85;22422;-72
2021/07/08 03:25:17;;;;;;;8.75;5.47;;;;;;;19.09;93.36;100137.91;1661328;85;21001;-72
2021/07/08 03:27:44;;;;;;;12.95;5.87;;;;;;;19.17;93.32;100140.28;1676014;84;20945;-72
2021/07/08 03:30:13;;;;;;;10.53;5.45;;;;;;;19.25;93.13;100138.72;1665141;85;21205;-74
2021/07/08 03:32:40;;;;;;;10.50;5.58;;;;;;;19.32;92.77;100141.68;1667982;85;21017;-73
2021/07/08 03:35:08;;;;;;;12.50;5.28;;;;;;;19.42;92.54;100140.33;1667025;84;21053;-72
2021/07/08 03:37:35;;;;;;;7.08;5.70;;;;;;;19.51;92.31;100142.92;1673227;84;20956;-71
2021/07/08 03:40:01;;;;;;;10.32;5.95;;;;;;;19.59;92.25;100142.77;1659827;84;21051;-71
2021/07/08 03:42:28;;;;;;;12.30;5.05;;;;;;;19.67;91.91;100141.73;1661554;85;22043;-71
2021/07/08 03:44:55;;;;;;;12.55;5.97;;;;;;;19.75;91.46;100142.70;1665256;85;21073;-72
2021/07/08 03:47:22;;;;;;;12.53;6.15;;;;;;;19.82;91.38;100147.64;1667001;85;21154;-72
2021/07/08 03:49:48;;;;;;;13.20;5.78;;;;;;;19.89;91.16;100150.00;1663677;85;21068;-72
2021/07/08 03:52:15;;;;;;;6.58;4.72;;;;;;;19.96;90.69;100153.53;1666333;85;21048;-72
2021/07/08 03:54:42;;;;;;;6.75;4.85;;;;;;;20.00;90.08;100151.05;1667724;85;21160;-71
2021/07/08 03:57:08;;;;;;;6.17;5.10;;;;;;;20.08;89.84;100154.80;1671539;85;21756;-73
2021/07/08 03:59:34;;;;;;;11.55;5.20;;;;;;;20.13;89.70;100153.13;1666110;85;21737;-71
2021/07/08 04:02:01;;;;;;;8.45;5.30;;;;;;;20.20;89.43;100156.06;1672178;84;21119;-75
2021/07/08 04:04:27;;;;;;;16.75;5.22;;;;;;;20.25;89.39;100152.15;1649821;84;21442;-71
2021/07/08 04:06:54;;;;;;;9.05;5.10;;;;;;;20.31;89.09;100157.08;1660229;84;21014;-72
2021/07/08 04:09:20;;;;;;;13.53;5.15;;;;;;;20.39;89.21;100158.87;1630142;86;21525;-73
2021/07/08 04:11:47;;;;;;;13.22;5.20;;;;;;;20.48;89.16;100160.62;1612078;87;21152;-73
2021/07/08 04:14:13;;;;;;;10.40;5.10;;;;;;;20.57;88.86;100159.81;1664080;84;21499;-72
2021/07/08 04:16:40;;;;;;;12.90;5.30;;;;;;;20.63;88.91;100160.55;1676450;84;20970;-73
2021/07/08 04:19:06;;;;;;;9.38;4.90;;;;;;;20.72;88.51;100166.70;1670098;84;22612;-75
2021/07/08 04:21:34;;;;;;;6.90;4.72;;;;;;;20.80;88.41;100165.45;1664242;85;21587;-74
2021/07/08 04:24:00;;;;;;;7.08;5.17;;;;;;;20.87;87.95;100167.77;1659154;85;21032;-73
2021/07/08 04:26:28;;;;;;;11.57;4.80;;;;;;;20.97;87.90;100169.14;1614634;88;20968;-72
2021/07/08 04:28:55;;;;;;;8.18;5.00;;;;;;;21.05;87.69;100174.48;1665543;84;21448;-72
2021/07/08 04:31:21;;;;;;;11.33;5.35;;;;;;;21.14;87.43;100167.85;1663476;84;21038;-72
2021/07/08 04:33:48;;;;;;;7.83;5.25;;;;;;;21.22;87.22;100173.81;1665130;85;21539;-73
2021/07/08 04:36:15;;;;;;;10.72;5.03;;;;;;;21.28;86.62;100176.52;1666791;85;21212;-73
2021/07/08 04:38:43;;;;;;;9.10;5.50;;;;;;;21.34;86.38;100180.61;1661559;84;21021;-73
2021/07/08 04:41:10;;;;;;;9.50;5.00;;;;;;;21.42;85.91;100178.12;1666385;85;21579;-73
2021/07/08 04:43:37;;;;;;;13.43;4.97;;;;;;;21.50;86.06;100182.66;1664415;85;21033;-73
2021/07/08 04:46:03;;;;;;;11.50;5.12;;;;;;;21.58;86.01;100186.37;1661657;85;21090;-73
2021/07/08 04:48:30;;;;;;;16.00;5.10;;;;;;;21.69;86.53;100195.14;1665888;85;22180;-73
2021/07/08 04:51:02;;;;;;;8.70;4.67;;;;;;;21.81;86.43;100186.34;1665782;85;21091;-73
2021/07/08 04:53:28;;;;;;;7.45;4.85;;;;;;;21.92;86.13;100190.10;1666105;85;21069;-73
2021/07/08 04:55:55;;;;;;;18.30;5.60;;;;;;;22.03;85.17;100198.86;1673035;84;21196;-73
2021/07/08 04:58:21;;;;;;;8.13;5.12;;;;;;;22.13;85.18;100190.42;1675102;84;21069;-73
2021/07/08 05:00:48;;;;;;;14.68;5.22;;;;;;;22.24;84.69;100189.98;1666015;84;21121;-73
2021/07/08 05:03:14;;;;;;;12.65;5.60;;;;;;;22.33;84.01;100191.09;1666738;85;20984;-71
2021/07/08 05:05:41;;;;;;;10.58;4.87;;;;;;;22.42;82.65;100198.61;1663761;85;20976;-72
2021/07/08 05:08:08;;;;;;;6.75;4.35;;;;;;;22.48;81.96;100193.48;1673407;84;21520;-72
2021/07/08 05:10:34;;;;;;;10.10;4.85;;;;;;;22.54;81.39;100198.93;1671205;85;20910;-72
2021/07/08 05:13:00;;;;;;;10.50;5.22;;;;;;;22.62;81.73;100195.84;1612974;87;21833;-72
2021/07/08 05:15:27;;;;;;;11.80;5.33;;;;;;;22.71;81.70;100201.14;1661361;84;20885;-68
2021/07/08 05:17:55;;;;;;;8.13;4.47;;;;;;;22.79;81.06;100207.06;1663011;85;22115;-72
2021/07/08 05:20:22;;;;;;;7.47;4.55;;;;;;;22.87;81.04;100205.16;1672834;84;21052;-72
2021/07/08 05:22:55;;;;;;;8.50;4.92;;;;;;;22.98;81.21;100206.89;1663953;84;21029;-72
2021/07/08 05:25:18;;;;;;;8.00;4.67;;;;;;;23.09;80.90;100209.00;1663274;85;21568;-71
2021/07/08 05:27:45;;;;;;;10.03;5.20;;;;;;;23.21;80.18;100215.70;1670622;85;21517;-71
2021/07/08 05:30:12;;;;;;;6.78;4.80;;;;;;;23.31;80.33;100216.41;1662830;85;21161;-75
2021/07/08 05:32:38;;;;;;;6.37;4.92;;;;;;;23.41;79.34;100219.91;1609866;87;21593;-73
2021/07/08 05:35:05;;;;;;;8.18;4.22;;;;;;;23.49;79.50;100218.78;1621260;86;21029;-73
2021/07/08 05:37:31;;;;;;;10.45;5.05;;;;;;;23.59;79.44;100218.10;1628201;87;21557;-75
2021/07/08 05:39:57;;;;;;;6.10;4.97;;;;;;;23.66;78.50;100216.76;1630427;87;21031;-74
2021/07/08 05:42:24;;;;;;;10.40;4.72;;;;;;;23.75;76.65;100222.60;1628419;86;21039;-74
2021/07/08 05:44:50;;;;;;;10.48;5.40;;;;;;;23.82;77.04;100226.87;1626423;87;21031;-73
2021/07/08 05:47:18;;;;;;;10.68;5.40;;;;;;;23.93;77.17;100224.95;1628663;86;21137;-72
2021/07/08 05:49:45;;;;;;;10.78;5.37;;;;;;;24.03;78.12;100220.82;1658281;85;21947;-74
2021/07/08 05:52:11;;;;;;;8.28;5.22;;;;;;;24.12;77.21;100220.48;1657606;85;21122;-72
2021/07/08 05:54:38;;;;;;;7.83;5.20;;;;;;;24.22;76.40;100218.34;1665731;84;21528;-72
2021/07/08 05:57:06;;;;;;;6.67;4.87;;;;;;;24.32;76.47;100228.02;1659438;85;21116;-73
2021/07/08 05:59:33;;;;;;;6.78;4.70;;;;;;;24.43;75.85;100223.87;1664563;85;21590;-73
2021/07/08 06:02:00;;;;;;;6.67;5.03;;;;;;;24.51;74.06;100229.73;1663460;85;21615;-72
2021/07/08 06:04:26;;;;;;;11.00;5.08;;;;;;;24.58;73.59;100226.95;1582460;88;21130;-75
2021/07/08 06:06:53;;;;;;;11.73;5.03;;;;;;;24.66;73.98;100232.20;1611523;87;21008;-72
2021/07/08 06:09:20;;;;;;;9.63;5.42;;;;;;;24.78;74.66;100228.25;1590380;88;21443;-73
2021/07/08 06:11:48;;;;;;;11.97;4.92;;;;;;;24.89;72.71;100238.89;1601043;87;20916;-72
2021/07/08 06:14:15;;;;;;;10.00;4.78;;;;;;;24.97;72.93;100240.55;1624490;87;21095;-76
2021/07/08 06:16:41;;;;;;;10.98;4.75;;;;;;;25.05;71.30;100239.98;1590492;87;21164;-72
2021/07/08 06:19:08;;;;;;;7.65;4.67;;;;;;;25.11;70.21;100240.39;1600831;87;21093;-71
2021/07/08 06:21:34;;;;;;;7.60;4.92;;;;;;;25.18;70.41;100237.60;1623349;87;21021;-77
2021/07/08 06:24:01;;;;;;;9.23;5.00;;;;;;;25.27;70.35;100245.86;1666264;84;20997;-77
2021/07/08 06:26:27;;;;;;;10.80;5.10;;;;;;;25.36;70.55;100244.06;1674009;84;21956;-75
2021/07/08 06:28:53;;;;;;;8.75;4.85;;;;;;;25.44;70.30;100245.66;1668688;84;21103;-75
2021/07/08 06:31:21;;;;;;;10.48;4.40;;;;;;;25.57;69.77;100248.89;1664486;84;21592;-78
2021/07/08 06:33:48;;;;;;;9.93;4.90;;;;;;;25.65;68.73;100249.12;1669439;84;21120;-75
2021/07/08 06:36:16;;;;;;;9.20;4.53;;;;;;;25.75;70.23;100251.14;1664146;84;21045;-76
2021/07/08 06:38:42;;;;;;;10.40;4.67;;;;;;;25.85;69.11;100256.56;1660460;84;21442;-75
2021/07/08 06:41:08;;;;;;;9.40;4.25;;;;;;;25.91;69.04;100250.13;1655903;85;21012;-75
2021/07/08 06:43:35;;;;;;;6.17;3.98;;;;;;;26.00;68.43;100254.72;1594256;87;21203;-75
2021/07/08 06:46:02;;;;;;;7.05;4.22;;;;;;;26.09;67.41;100256.32;1625220;87;21057;-75
2021/07/08 06:48:28;;;;;;;7.85;5.17;;;;;;;26.14;66.52;100259.53;1669759;85;20909;-75
2021/07/08 06:50:54;;;;;;;8.30;4.80;;;;;;;26.18;66.72;100258.12;1660238;85;21195;-75
2021/07/08 06:53:21;;;;;;;7.75;4.28;;;;;;;26.27;67.54;100264.14;1673798;84;20973;-75
2021/07/08 06:55:48;;;;;;;6.17;3.92;;;;;;;26.38;66.35;100257.11;1671477;84;20986;-75
2021/07/08 06:58:14;;;;;;;4.42;3.77;;;;;;;26.48;66.81;100259.09;1670140;85;21015;-75
2021/07/08 07:00:42;;;;;;;7.67;4.67;;;;;;;26.58;64.33;100255.42;1589822;87;21173;-75
2021/07/08 07:03:08;;;;;;;8.68;4.47;;;;;;;26.62;64.41;100252.79;1656247;85;21206;-74
2021/07/08 07:05:35;;;;;;;8.90;4.47;;;;;;;26.72;64.63;100258.19;1663403;85;21077;-74
2021/07/08 07:08:02;;;;;;;7.92;4.00;;;;;;;26.82;65.11;100255.94;1660115;85;21123;-74
2021/07/08 07:10:28;;;;;;;8.60;4.20;;;;;;;26.94;64.47;100260.31;1660293;84;21008;-75
2021/07/08 07:12:57;;;;;;;8.25;3.92;;;;;;;27.04;62.93;100259.49;1661266;85;21001;-75
2021/07/08 07:15:27;;;;;;;6.47;4.28;;;;;;;27.15;62.92;100260.84;1678040;85;21425;-75
2021/07/08 07:17:53;;;;;;;6.92;4.22;;;;;;;27.18;61.32;100269.25;1674007;84;21524;-75
2021/07/08 07:20:20;;;;;;;6.58;4.00;;;;;;;27.22;61.57;100262.19;1663723;84;20965;-76
2021/07/08 07:22:48;;;;;;;6.40;4.22;;;;;;;27.28;62.10;100264.16;1590137;89;21032;-76
2021/07/08 07:25:20;;;;;;;7.78;4.12;;;;;;;27.39;61.54;100266.92;1602531;87;21602;-75
2021/07/08 07:27:49;;;;;;;8.43;4.00;;;;;;;27.44;59.49;100268.50;1671288;85;21205;-75
2021/07/08 07:30:15;;;;;;;8.55;4.00;;;;;;;27.46;58.39;100268.28;1659762;85;20977;-76
2021/07/08 07:32:41;;;;;;;4.33;3.70;;;;;;;27.45;58.38;100267.28;1658533;85;21001;-75
2021/07/08 07:35:09;;;;;;;4.62;4.10;;;;;;;27.43;59.54;100265.48;1678513;84;21465;-75
2021/07/08 07:37:37;;;;;;;8.43;4.20;;;;;;;27.46;58.71;100269.70;1670584;85;20938;-75
2021/07/08 07:40:05;;;;;;;5.80;4.25;;;;;;;27.52;58.88;100272.27;1658317;85;21087;-75
2021/07/08 07:42:33;;;;;;;6.05;3.70;;;;;;;27.61;59.18;100281.71;1608724;87;21213;-75
2021/07/08 07:45:02;;;;;;;3.90;3.50;;;;;;;27.69;58.52;100278.23;1611332;87;21146;-74
2021/07/08 07:47:28;;;;;;;11.73;4.15;;;;;;;27.76;57.97;100280.97;1665972;85;21678;-75
2021/07/08 07:49:55;;;;;;;8.18;4.50;;;;;;;27.84;58.22;100281.11;1657159;85;21100;-74
2021/07/08 07:52:22;;;;;;;5.58;4.00;;;;;;;27.94;58.03;100275.99;1658607;85;22048;-74
2021/07/08 07:54:48;;;;;;;5.28;3.40;;;;;;;28.06;57.81;100281.73;1666216;85;20947;-75
2021/07/08 07:57:15;;;;;;;4.67;3.62;;;;;;;28.15;56.45;100282.86;1667373;85;20993;-74
2021/07/08 07:59:41;;;;;;;5.60;3.62;;;;;;;28.22;56.67;100285.64;1670807;84;21519;-75
2021/07/08 08:02:13;;;;;;;7.22;3.50;;;;;;;28.31;55.59;100287.95;1603370;87;20995;-74
2021/07/08 08:10:12;;;;;;;7.67;4.00;;;;;;;28.68;53.60;100282.92;1665345;85;21072;-74
2021/07/08 08:12:39;;;;;;;5.53;3.72;;;;;;;28.74;54.70;100292.54;1658587;85;21493;-75
2021/07/08 08:15:06;;;;;;;15.75;4.03;;;;;;;28.79;54.73;100284.21;1666695;85;20922;-75
2021/07/08 08:17:37;;;;;;;8.78;3.70;;;;;;;28.83;52.04;100279.35;1669779;85;21542;-75
2021/07/08 08:20:08;;;;;;;10.48;3.27;;;;;;;28.89;53.14;100279.05;1658501;85;21223;-75
2021/07/08 08:22:37;;;;;;;6.78;4.62;;;;;;;29.11;52.68;100278.96;1667309;85;21113;-75
2021/07/08 08:25:03;;;;;;;12.23;4.60;;;;;;;29.38;51.00;100279.00;1664700;84;21034;-75
2021/07/08 08:27:29;;;;;;;9.08;3.60;;;;;;;29.62;50.37;100279.05;1673838;84;21517;-75
2021/07/08 08:29:55;;;;;;;10.90;3.52;;;;;;;29.85;49.57;100283.33;1665472;84;21114;-75
2021/07/08 08:32:22;;;;;;;7.50;3.20;;;;;;;30.11;50.47;100287.34;1659465;85;21556;-75
2021/07/08 08:34:48;;;;;;;10.00;4.62;;;;;;;30.20;47.32;100292.64;1667763;84;20990;-75
2021/07/08 08:37:15;;;;;;;5.03;3.50;;;;;;;30.21;47.37;100288.58;1674502;85;21503;-74
2021/07/08 08:39:42;;;;;;;6.75;3.58;;;;;;;30.36;47.85;100286.91;1663013;85;21124;-74
2021/07/08 08:42:09;;;;;;;7.97;4.58;;;;;;;30.57;49.38;100291.37;1657967;84;21060;-74
2021/07/08 08:44:37;;;;;;;4.20;2.98;;;;;;;30.82;46.12;100293.10;1660889;84;21091;-73
2021/07/08 08:47:10;;;;;;;4.72;2.95;;;;;;;30.88;44.35;100297.83;1663980;85;21121;-74
2021/07/08 08:49:41;;;;;;;4.65;2.90;;;;;;;30.67;43.66;100294.62;1673247;85;20914;-75
2021/07/08 08:52:09;;;;;;;7.53;2.85;;;;;;;30.53;45.34;100291.44;1655772;85;21014;-75
2021/07/08 08:54:37;;;;;;;5.28;2.60;;;;;;;30.37;44.36;100297.00;1664011;85;21195;-75
2021/07/08 08:57:03;;;;;;;6.45;2.87;;;;;;;30.14;43.78;100301.44;1608816;87;21094;-74
2021/07/08 08:59:31;;;;;;;7.20;3.42;;;;;;;30.14;46.23;100297.81;1607780;87;21086;-74
2021/07/08 09:02:18;;;;;;;12.40;2.98;;;;;;;30.38;43.73;100301.44;1601249;88;21062;-74
2021/07/08 09:04:46;;;;;;;6.62;2.85;;;;;;;30.50;44.19;100296.55;1603576;88;21596;-75
2021/07/08 09:07:25;;;;;;;5.42;2.85;;;;;;;30.31;43.50;100292.45;1600167;88;21138;-74
2021/07/08 09:09:57;;;;;;;3.98;2.65;;;;;;;30.15;45.82;100298.80;1622465;87;21067;-74
2021/07/08 09:12:25;;;;;;;6.80;2.80;;;;;;;30.29;45.43;100302.61;1622931;87;21223;-74
2021/07/08 09:14:53;;;;;;;4.08;2.52;;;;;;;30.64;43.54;100296.91;1623657;87;21008;-75
2021/07/08 09:17:22;;;;;;;3.02;2.40;;;;;;;30.88;43.85;100299.24;1620413;85;21085;-75
2021/07/08 09:20:07;;;;;;;4.50;2.70;;;;;;;30.88;42.47;100303.49;1665374;84;21204;-74
2021/07/08 09:22:34;;;;;;;8.60;2.85;;;;;;;30.95;42.48;100295.47;1669832;84;21020;-75
2021/07/08 09:25:00;;;;;;;7.25;2.87;;;;;;;31.27;42.47;100296.20;1661337;84;21513;-74
2021/07/08 09:27:28;;;;;;;4.72;2.65;;;;;;;31.61;43.07;100299.29;1668412;84;20884;-74
2021/07/08 09:29:55;;;;;;;10.75;2.72;;;;;;;32.01;41.25;100297.10;1659621;85;21096;-74
2021/07/08 09:32:23;;;;;;;6.78;3.30;;;;;;;32.31;40.07;100303.05;1650672;85;21123;-74
2021/07/08 09:34:54;;;;;;;8.58;3.45;;;;;;;32.51;39.16;100299.44;1657420;85;21002;-74
2021/07/08 09:37:29;;;;;;;4.35;2.70;;;;;;;32.69;39.06;100291.84;1650526;85;27333;-74
2021/07/08 09:39:59;;;;;;;4.03;2.80;;;;;;;32.96;38.12;100298.58;1639377;85;20977;-74
2021/07/08 09:42:49;;;;;;;4.30;2.85;;;;;;;33.00;35.41;100307.81;1670038;85;21505;-73
2021/07/08 09:45:18;;;;;;;6.42;2.17;;;;;;;32.95;35.51;100301.26;1655706;85;21421;-73
2021/07/08 09:47:46;;;;;;;4.72;3.10;;;;;;;33.00;37.92;100295.81;1655115;85;21496;-73
2021/07/08 09:50:26;;;;;;;9.48;2.90;;;;;;;33.13;35.70;100301.53;1645289;85;21202;-73
2021/07/08 09:53:07;;;;;;;;;;;;;;;33.07;36.43;100299.87;1669117;85;21434;-73
2021/07/08 09:58:56;;;;;;;6.25;2.87;;;;;;;32.84;36.68;100299.38;1673494;84;21088;-72
2021/07/08 10:01:26;;;;;;;6.12;3.05;;;;;;;32.30;37.31;100296.58;1652763;84;20951;-74
2021/07/08 10:03:55;;;;;;;5.75;2.42;;;;;;;31.79;38.85;100293.37;1627014;86;21189;-71
2021/07/08 10:06:21;;;;;;;4.55;2.58;;;;;;;31.63;38.79;100293.97;1627111;86;21097;-73
2021/07/08 10:08:50;;;;;;;6.90;2.52;;;;;;;31.79;39.63;100291.95;1635772;86;21110;-73
2021/07/08 10:11:19;;;;;;;4.90;2.40;;;;;;;31.98;38.62;100286.62;1629453;86;22325;-75
2021/07/08 10:13:47;;;;;;;3.52;2.30;;;;;;;32.30;38.26;100289.47;1626172;86;21035;-77
2021/07/08 10:16:14;;;;;;;5.53;2.55;;;;;;;32.66;37.75;100284.21;1627702;86;21105;-74
2021/07/08 10:18:43;;;;;;;6.55;2.83;;;;;;;32.95;36.54;100282.77;1629251;86;21027;-74
2021/07/08 10:21:10;;;;;;;3.62;1.90;;;;;;;33.14;36.96;100286.06;1632290;86;20916;-77
2021/07/08 10:23:37;;;;;;;8.68;2.27;;;;;;;33.26;36.42;100283.86;1646899;85;21133;-75
2021/07/08 10:26:06;;;;;;;6.20;2.27;;;;;;;33.07;35.22;100279.16;1627099;86;21112;-82
2021/07/08 10:28:35;;;;;;;2.83;2.12;;;;;;;32.92;36.71;100275.17;1671488;85;21133;-75
2021/07/08 10:31:02;;;;;;;5.30;2.45;;;;;;;32.90;34.95;100274.83;1671690;84;21539;-77
2021/07/08 10:33:28;;;;;;;2.87;2.20;;;;;;;33.02;36.01;100275.45;1660007;84;21066;-76
2021/07/08 10:35:57;;;;;;;4.80;2.33;;;;;;;33.32;39.13;100274.96;1654586;85;21458;-80
2021/07/08 10:38:40;;;;;;;5.85;2.20;;;;;;;33.64;36.07;100271.70;1601041;87;21079;-79
2021/07/08 10:41:14;;;;;;;5.22;2.37;;;;;;;33.82;35.14;100271.14;1655048;85;21540;-82
2021/07/08 10:43:43;;;;;;;6.35;1.98;;;;;;;33.94;34.68;100281.09;1606620;87;20986;-79
2021/07/08 10:46:12;;;;;;;4.87;2.27;;;;;;;33.97;34.08;100270.22;1599775;88;21005;-78
2021/07/08 10:48:42;;;;;;;2.98;2.00;;;;;;;33.97;35.30;100268.79;1659334;85;21802;-70
2021/07/08 10:51:25;;;;;;;10.28;2.10;;;;;;;33.89;35.59;100273.13;1613219;87;21128;-70
2021/07/08 10:53:51;;;;;;;2.75;2.15;;;;;;;33.90;36.35;100274.73;1609335;88;21625;-76
2021/07/08 10:56:23;;;;;;;6.37;2.10;;;;;;;33.99;35.86;100277.67;1606170;88;21094;-83
2021/07/08 10:58:57;;;;;;;3.65;2.20;;;;;;;33.95;34.05;100275.57;1642883;84;43954;-77
2021/07/08 11:01:30;;;;;;;3.85;2.20;;;;;;;33.88;35.08;100270.74;1656732;85;21002;-72
2021/07/08 11:04:02;;;;;;;3.05;2.15;;;;;;;33.85;31.92;100271.03;1671858;83;21103;-73
2021/07/08 11:06:30;;;;;;;7.00;2.30;;;;;;;33.62;32.45;100269.30;1671678;83;20976;-75
2021/07/08 11:09:18;;;;;;;6.67;2.12;;;;;;;33.51;33.03;100268.86;1662666;84;21095;-76
2021/07/08 11:11:50;;;;;;;2.45;2.05;;;;;;;33.47;35.86;100262.51;1634415;85;21136;-74
2021/07/08 11:14:26;;;;;;;5.58;2.50;;;;;;;33.41;32.30;100262.28;1663488;84;21565;-79
2021/07/08 11:17:11;;;;;;;5.78;2.30;;;;;;;33.32;35.98;100263.58;1663133;85;21103;-76
2021/07/08 11:19:39;;;;;;;2.52;2.10;;;;;;;33.48;35.46;100260.46;1663859;85;21167;-74
2021/07/08 11:22:09;;;;;;;8.08;2.58;;;;;;;33.71;34.86;100256.61;1674006;84;21094;-74
2021/07/08 11:24:47;;;;;;;3.95;2.42;;;;;;;33.81;34.46;100260.38;1661657;84;21540;-73
2021/07/08 11:27:31;;;;;;;3.77;2.37;;;;;;;33.82;35.10;100250.59;1671934;84;21143;-73
2021/07/08 11:30:01;;;;;;;3.80;2.30;;;;;;;33.84;33.98;100250.92;1662488;85;21010;-73
2021/07/08 11:32:45;;;;;;;5.60;2.40;;;;;;;33.88;33.30;100249.38;1665866;84;20985;-72
2021/07/08 11:35:21;;;;;;;4.87;2.50;;;;;;;33.85;32.83;100246.83;1671639;85;21543;-73